sensor_id;sensor_type;location;lat;lon;timestamp;pressure;altitude;pressure_sealevel;temperature;humidity
70027;BME280;57506;50.092;15.804;2023-04-08T00:00:14;99036.78;;;3.84;100.00
70027;BME280;57506;50.092;15.804;2023-04-08T00:02:39;99051.50;;;3.89;100.00
70027;BME280;57506;50.092;15.804;2023-04-08T00:05:06;99053.31;;;3.88;100.00
70027;BME280;57506;50.092;15.804;2023-04-08T00:07:32;99049.13;;;3.85;100.00
70027;BME280;57506;50.092;15.804;2023-04-08T00:09:57;99050.81;;;3.86;100.00
70027;BME280;57506;50.092;15.804;2023-04-08T00:12:23;99045.09;;;3.81;100.00
70027;BME280;57506;50.092;15.804;2023-04-08T00:14:49;99058.78;;;3.86;100.00
70027;BME280;57506;50.092;15.804;2023-04-08T00:17:14;99058.78;;;3.86;100.00
70027;BME280;57506;50.092;15.804;2023-04-08T00:19:40;99046.75;;;3.82;100.00
70027;BME280;57506;50.092;15.804;2023-04-08T00:22:06;99051.41;;;3.80;100.00
70027;BME280;57506;50.092;15.804;2023-04-08T00:24:32;99059.94;;;3.84;100.00
70027;BME280;57506;50.092;15.804;2023-04-08T00:26:58;99049.59;;;3.81;100.00
70027;BME280;57506;50.092;15.804;2023-04-08T00:29:23;99058.25;;;3.83;100.00
70027;BME280;57506;50.092;15.804;2023-04-08T00:31:49;99068.25;;;3.81;100.00
70027;BME280;57506;50.092;15.804;2023-04-08T00:34:14;99063.22;;;3.78;100.00
70027;BME280;57506;50.092;15.804;2023-04-08T00:36:40;99064.03;;;3.78;100.00
70027;BME280;57506;50.092;15.804;2023-04-08T00:39:05;99069.53;;;3.77;100.00
70027;BME280;57506;50.092;15.804;2023-04-08T00:41:34;99063.69;;;3.73;100.00
70027;BME280;57506;50.092;15.804;2023-04-08T00:44:00;99070.00;;;3.72;100.00
70027;BME280;57506;50.092;15.804;2023-04-08T00:46:26;99078.50;;;3.76;100.00
70027;BME280;57506;50.092;15.804;2023-04-08T00:48:51;99069.81;;;3.74;100.00
70027;BME280;57506;50.092;15.804;2023-04-08T00:51:18;99076.53;;;3.78;100.00
70027;BME280;57506;50.092;15.804;2023-04-08T00:53:43;99077.66;;;3.75;100.00
70027;BME280;57506;50.092;15.804;2023-04-08T00:56:09;99077.66;;;3.75;100.00
70027;BME280;57506;50.092;15.804;2023-04-08T00:58:35;99071.34;;;3.76;100.00
70027;BME280;57506;50.092;15.804;2023-04-08T01:01:06;99075.00;;;3.75;100.00
70027;BME280;57506;50.092;15.804;2023-04-08T01:06:40;99074.66;;;3.70;100.00
70027;BME280;57506;50.092;15.804;2023-04-08T01:09:11;99076.34;;;3.71;100.00
70027;BME280;57506;50.092;15.804;2023-04-08T01:11:41;99078.50;;;3.76;100.00
70027;BME280;57506;50.092;15.804;2023-04-08T01:14:08;99074.84;;;3.77;100.00
70027;BME280;57506;50.092;15.804;2023-04-08T01:16:37;99067.34;;;3.72;100.00
70027;BME280;57506;50.092;15.804;2023-04-08T01:19:07;99071.00;;;3.71;100.00
70027;BME280;57506;50.092;15.804;2023-04-08T01:21:35;99088.47;;;3.74;100.00
70027;BME280;57506;50.092;15.804;2023-04-08T01:24:25;99085.81;;;3.74;100.00
70027;BME280;57506;50.092;15.804;2023-04-08T01:26:53;99074.94;;;3.67;100.00
70027;BME280;57506;50.092;15.804;2023-04-08T01:29:21;99073.97;;;3.68;100.00
70027;BME280;57506;50.092;15.804;2023-04-08T01:31:49;99079.97;;;3.70;100.00
70027;BME280;57506;50.092;15.804;2023-04-08T01:34:17;99071.31;;;3.68;100.00
70027;BME280;57506;50.092;15.804;2023-04-08T01:36:44;99079.97;;;3.70;100.00
70027;BME280;57506;50.092;15.804;2023-04-08T01:39:11;99083.63;;;3.69;100.00
70027;BME280;57506;50.092;15.804;2023-04-08T01:41:38;99080.44;;;3.66;100.00
70027;BME280;57506;50.092;15.804;2023-04-08T01:44:05;99087.28;;;3.68;100.00
70027;BME280;57506;50.092;15.804;2023-04-08T01:46:31;99091.78;;;3.68;100.00
70027;BME280;57506;50.092;15.804;2023-04-08T01:48:58;99088.88;;;3.61;100.00
70027;BME280;57506;50.092;15.804;2023-04-08T01:51:25;99093.91;;;3.64;100.00
70027;BME280;57506;50.092;15.804;2023-04-08T01:53:52;99093.75;;;3.66;100.00
70027;BME280;57506;50.092;15.804;2023-04-08T01:56:21;99097.94;;;3.68;100.00
70027;BME280;57506;50.092;15.804;2023-04-08T01:58:51;99087.59;;;3.65;100.00
70027;BME280;57506;50.092;15.804;2023-04-08T02:01:20;99099.16;;;3.74;100.00
70027;BME280;57506;50.092;15.804;2023-04-08T02:03:47;99100.47;;;3.70;100.00
70027;BME280;57506;50.092;15.804;2023-04-08T02:06:16;99098.78;;;3.69;100.00
70027;BME280;57506;50.092;15.804;2023-04-08T02:08:42;99103.28;;;3.68;100.00
70027;BME280;57506;50.092;15.804;2023-04-08T02:11:07;99106.78;;;3.69;100.00
70027;BME280;57506;50.092;15.804;2023-04-08T02:13:33;99105.94;;;3.68;100.00
70027;BME280;57506;50.092;15.804;2023-04-08T02:16:18;99109.44;;;3.69;100.00
70027;BME280;57506;50.092;15.804;2023-04-08T02:18:58;99101.22;;;3.62;100.00
70027;BME280;57506;50.092;15.804;2023-04-08T02:21:35;99112.84;;;3.61;100.00
70027;BME280;57506;50.092;15.804;2023-04-08T02:24:04;99109.50;;;3.59;100.00
70027;BME280;57506;50.092;15.804;2023-04-08T02:26:33;99113.69;;;3.62;100.00
70027;BME280;57506;50.092;15.804;2023-04-08T02:29:02;99100.00;;;3.57;100.00
70027;BME280;57506;50.092;15.804;2023-04-08T02:31:28;99109.84;;;3.56;100.00
70027;BME280;57506;50.092;15.804;2023-04-08T02:33:55;99112.31;;;3.58;100.00
70027;BME280;57506;50.092;15.804;2023-04-08T02:36:22;99112.31;;;3.58;100.00
70027;BME280;57506;50.092;15.804;2023-04-08T02:38:48;99123.50;;;3.61;100.00
70027;BME280;57506;50.092;15.804;2023-04-08T02:41:14;99112.16;;;3.59;100.00
70027;BME280;57506;50.092;15.804;2023-04-08T02:43:41;99115.81;;;3.58;100.00
70027;BME280;57506;50.092;15.804;2023-04-08T02:46:07;99115.81;;;3.58;100.00
70027;BME280;57506;50.092;15.804;2023-04-08T02:48:34;99111.81;;;3.54;100.00
70027;BME280;57506;50.092;15.804;2023-04-08T02:51:00;99123.81;;;3.58;100.00
70027;BME280;57506;50.092;15.804;2023-04-08T02:53:25;99121.31;;;3.57;100.00
70027;BME280;57506;50.092;15.804;2023-04-08T02:55:51;99106.63;;;3.53;100.00
70027;BME280;57506;50.092;15.804;2023-04-08T02:58:16;99108.84;;;3.57;100.00
70027;BME280;57506;50.092;15.804;2023-04-08T03:00:42;99104.31;;;3.58;100.00
70027;BME280;57506;50.092;15.804;2023-04-08T03:03:07;99109.84;;;3.56;100.00
70027;BME280;57506;50.092;15.804;2023-04-08T03:05:33;99108.66;;;3.59;100.00
70027;BME280;57506;50.092;15.804;2023-04-08T03:07:58;99101.44;;;3.51;100.00
70027;BME280;57506;50.092;15.804;2023-04-08T03:10:24;99110.66;;;3.57;100.00
70027;BME280;57506;50.092;15.804;2023-04-08T03:12:50;99108.66;;;3.59;100.00
70027;BME280;57506;50.092;15.804;2023-04-08T03:15:15;99104.50;;;3.56;100.00
70027;BME280;57506;50.092;15.804;2023-04-08T03:17:41;99108.66;;;3.59;100.00
70027;BME280;57506;50.092;15.804;2023-04-08T03:20:07;99109.50;;;3.59;100.00
70027;BME280;57506;50.092;15.804;2023-04-08T03:22:33;99102.81;;;3.55;100.00
70027;BME280;57506;50.092;15.804;2023-04-08T03:24:59;99111.31;;;3.59;100.00
70027;BME280;57506;50.092;15.804;2023-04-08T03:27:24;99116.50;;;3.60;100.00
70027;BME280;57506;50.092;15.804;2023-04-08T03:29:50;99102.50;;;3.58;100.00
70027;BME280;57506;50.092;15.804;2023-04-08T03:32:17;99108.38;;;3.62;100.00
70027;BME280;57506;50.092;15.804;2023-04-08T03:34:42;99105.00;;;3.60;100.00
70027;BME280;57506;50.092;15.804;2023-04-08T03:37:08;99104.16;;;3.59;100.00
70027;BME280;57506;50.092;15.804;2023-04-08T03:39:34;99102.81;;;3.55;100.00
70027;BME280;57506;50.092;15.804;2023-04-08T03:41:59;99116.84;;;3.57;100.00
70027;BME280;57506;50.092;15.804;2023-04-08T03:44:26;99114.31;;;3.56;100.00
70027;BME280;57506;50.092;15.804;2023-04-08T03:46:51;99118.47;;;3.58;100.00
70027;BME280;57506;50.092;15.804;2023-04-08T03:49:17;99109.97;;;3.55;100.00
70027;BME280;57506;50.092;15.804;2023-04-08T03:51:42;99115.16;;;3.56;100.00
70027;BME280;57506;50.092;15.804;2023-04-08T03:54:08;99120.16;;;3.59;100.00
70027;BME280;57506;50.092;15.804;2023-04-08T03:56:33;99117.81;;;3.56;100.00
70027;BME280;57506;50.092;15.804;2023-04-08T03:58:59;99114.38;;;3.46;100.00
70027;BME280;57506;50.092;15.804;2023-04-08T04:01:25;99114.31;;;3.56;100.00
70027;BME280;57506;50.092;15.804;2023-04-08T04:03:50;99126.31;;;3.60;100.00
70027;BME280;57506;50.092;15.804;2023-04-08T04:06:15;99129.97;;;3.59;100.00
70027;BME280;57506;50.092;15.804;2023-04-08T04:08:41;99122.16;;;3.57;100.00
70027;BME280;57506;50.092;15.804;2023-04-08T04:11:06;99127.50;;;3.57;100.00
70027;BME280;57506;50.092;15.804;2023-04-08T04:13:32;99134.47;;;3.58;100.00
70027;BME280;57506;50.092;15.804;2023-04-08T04:15:57;99140.63;;;3.59;100.00
70027;BME280;57506;50.092;15.804;2023-04-08T04:18:23;99140.97;;;3.56;100.00
70027;BME280;57506;50.092;15.804;2023-04-08T04:20:48;99140.63;;;3.59;100.00
70027;BME280;57506;50.092;15.804;2023-04-08T04:23:14;99139.66;;;3.60;100.00
70027;BME280;57506;50.092;15.804;2023-04-08T04:25:42;99154.81;;;3.59;100.00
70027;BME280;57506;50.092;15.804;2023-04-08T04:28:08;99145.47;;;3.55;100.00
70027;BME280;57506;50.092;15.804;2023-04-08T04:30:37;99155.28;;;3.55;100.00
70027;BME280;57506;50.092;15.804;2023-04-08T04:33:04;99157.78;;;3.56;100.00
70027;BME280;57506;50.092;15.804;2023-04-08T04:35:29;99157.47;;;3.59;100.00
70027;BME280;57506;50.092;15.804;2023-04-08T04:37:55;99158.16;;;3.61;100.00
70027;BME280;57506;50.092;15.804;2023-04-08T04:40:21;99159.28;;;3.59;100.00
70027;BME280;57506;50.092;15.804;2023-04-08T04:42:46;99160.53;;;3.64;100.00
70027;BME280;57506;50.092;15.804;2023-04-08T04:45:11;99171.78;;;3.58;100.00
70027;BME280;57506;50.092;15.804;2023-04-08T04:47:37;99175.13;;;3.60;100.00
70027;BME280;57506;50.092;15.804;2023-04-08T04:50:03;99180.47;;;3.60;100.00
70027;BME280;57506;50.092;15.804;2023-04-08T04:52:28;99189.16;;;3.62;100.00
70027;BME280;57506;50.092;15.804;2023-04-08T04:54:55;99183.53;;;3.65;100.00
70027;BME280;57506;50.092;15.804;2023-04-08T04:57:21;99189.84;;;3.64;100.00
70027;BME280;57506;50.092;15.804;2023-04-08T04:59:46;99176.50;;;3.64;100.00
70027;BME280;57506;50.092;15.804;2023-04-08T05:02:11;99184.22;;;3.67;100.00
70027;BME280;57506;50.092;15.804;2023-04-08T05:04:37;99190.22;;;3.69;100.00
70027;BME280;57506;50.092;15.804;2023-04-08T05:07:02;99191.91;;;3.70;100.00
70027;BME280;57506;50.092;15.804;2023-04-08T05:09:28;99190.94;;;3.71;100.00
70027;BME280;57506;50.092;15.804;2023-04-08T05:11:55;99201.13;;;3.76;100.00
70027;BME280;57506;50.092;15.804;2023-04-08T05:14:20;99191.75;;;3.72;100.00
70027;BME280;57506;50.092;15.804;2023-04-08T05:16:46;99193.97;;;3.76;100.00
70027;BME280;57506;50.092;15.804;2023-04-08T05:19:11;99194.94;;;3.75;100.00
70027;BME280;57506;50.092;15.804;2023-04-08T05:21:36;99197.03;;;3.81;100.00
70027;BME280;57506;50.092;15.804;2023-04-08T05:24:02;99205.25;;;3.88;100.00
70027;BME280;57506;50.092;15.804;2023-04-08T05:26:27;99206.63;;;3.92;100.00
70027;BME280;57506;50.092;15.804;2023-04-08T05:28:53;99211.09;;;3.92;100.00
70027;BME280;57506;50.092;15.804;2023-04-08T05:31:19;99209.13;;;3.94;100.00
70027;BME280;57506;50.092;15.804;2023-04-08T05:33:45;99218.91;;;4.03;100.00
70027;BME280;57506;50.092;15.804;2023-04-08T05:36:11;99227.28;;;4.08;100.00
70027;BME280;57506;50.092;15.804;2023-04-08T05:38:37;99218.28;;;4.09;100.00
70027;BME280;57506;50.092;15.804;2023-04-08T05:41:03;99230.03;;;4.16;100.00
70027;BME280;57506;50.092;15.804;2023-04-08T05:43:29;99232.00;;;4.14;100.00
70027;BME280;57506;50.092;15.804;2023-04-08T05:45:54;99243.38;;;4.16;100.00
70027;BME280;57506;50.092;15.804;2023-04-08T05:48:20;99257.25;;;4.19;100.00
70027;BME280;57506;50.092;15.804;2023-04-08T05:50:46;99252.41;;;4.23;100.00
70027;BME280;57506;50.092;15.804;2023-04-08T05:53:13;99252.13;;;4.26;100.00
70027;BME280;57506;50.092;15.804;2023-04-08T05:55:39;99255.88;;;4.33;100.00
70027;BME280;57506;50.092;15.804;2023-04-08T05:58:05;99265.25;;;4.37;100.00
70027;BME280;57506;50.092;15.804;2023-04-08T06:00:31;99262.94;;;4.42;100.00
70027;BME280;57506;50.092;15.804;2023-04-08T06:02:56;99255.88;;;4.51;100.00
70027;BME280;57506;50.092;15.804;2023-04-08T06:05:22;99260.91;;;4.54;100.00
70027;BME280;57506;50.092;15.804;2023-04-08T06:07:47;99265.88;;;4.75;100.00
70027;BME280;57506;50.092;15.804;2023-04-08T06:10:13;99267.41;;;4.77;100.00
70027;BME280;57506;50.092;15.804;2023-04-08T06:12:39;99276.34;;;4.86;100.00
70027;BME280;57506;50.092;15.804;2023-04-08T06:15:07;99284.69;;;4.91;100.00
70027;BME280;57506;50.092;15.804;2023-04-08T06:17:35;99299.44;;;4.95;100.00
70027;BME280;57506;50.092;15.804;2023-04-08T06:20:01;99297.06;;;4.92;100.00
70027;BME280;57506;50.092;15.804;2023-04-08T06:22:28;99302.00;;;5.05;100.00
70027;BME280;57506;50.092;15.804;2023-04-08T06:24:53;99310.69;;;5.07;100.00
70027;BME280;57506;50.092;15.804;2023-04-08T06:27:19;99319.53;;;5.07;100.00
70027;BME280;57506;50.092;15.804;2023-04-08T06:29:45;99315.66;;;5.19;100.00
70027;BME280;57506;50.092;15.804;2023-04-08T06:32:12;99319.66;;;5.23;100.00
70027;BME280;57506;50.092;15.804;2023-04-08T06:34:37;99331.19;;;5.24;100.00
70027;BME280;57506;50.092;15.804;2023-04-08T06:37:03;99343.16;;;5.20;100.00
70027;BME280;57506;50.092;15.804;2023-04-08T06:39:30;99362.72;;;5.20;100.00
70027;BME280;57506;50.092;15.804;2023-04-08T06:41:56;99364.34;;;5.13;100.00
70027;BME280;57506;50.092;15.804;2023-04-08T06:44:22;99364.53;;;5.20;100.00
70027;BME280;57506;50.092;15.804;2023-04-08T06:46:48;99372.31;;;5.31;100.00
70027;BME280;57506;50.092;15.804;2023-04-08T06:49:14;99375.16;;;5.30;100.00
70027;BME280;57506;50.092;15.804;2023-04-08T06:51:40;99384.59;;;5.42;100.00
70027;BME280;57506;50.092;15.804;2023-04-08T06:54:05;99374.28;;;5.47;100.00
70027;BME280;57506;50.092;15.804;2023-04-08T06:56:31;99375.41;;;5.44;100.00
70027;BME280;57506;50.092;15.804;2023-04-08T06:58:56;99386.84;;;5.54;100.00
70027;BME280;57506;50.092;15.804;2023-04-08T07:01:22;99383.84;;;5.57;100.00
70027;BME280;57506;50.092;15.804;2023-04-08T07:03:48;99378.56;;;5.66;100.00
70027;BME280;57506;50.092;15.804;2023-04-08T07:06:13;99386.00;;;5.80;100.00
70027;BME280;57506;50.092;15.804;2023-04-08T07:08:39;99383.03;;;5.83;100.00
70027;BME280;57506;50.092;15.804;2023-04-08T07:11:04;99398.22;;;5.82;100.00
70027;BME280;57506;50.092;15.804;2023-04-08T07:13:30;99409.38;;;5.78;100.00
70027;BME280;57506;50.092;15.804;2023-04-08T07:15:55;99399.53;;;5.78;100.00
70027;BME280;57506;50.092;15.804;2023-04-08T07:18:21;99412.88;;;5.96;100.00
70027;BME280;57506;50.092;15.804;2023-04-08T07:20:50;99416.38;;;5.96;100.00
70027;BME280;57506;50.092;15.804;2023-04-08T07:23:17;99428.47;;;6.01;100.00
70027;BME280;57506;50.092;15.804;2023-04-08T07:25:42;99424.41;;;5.96;100.00
70027;BME280;57506;50.092;15.804;2023-04-08T07:28:08;99418.41;;;6.03;100.00
70027;BME280;57506;50.092;15.804;2023-04-08T07:30:33;99429.59;;;5.98;100.00
70027;BME280;57506;50.092;15.804;2023-04-08T07:32:59;99434.53;;;6.19;100.00
70027;BME280;57506;50.092;15.804;2023-04-08T07:35:24;99427.09;;;6.30;100.00
70027;BME280;57506;50.092;15.804;2023-04-08T07:37:50;99438.06;;;6.19;100.00
70027;BME280;57506;50.092;15.804;2023-04-08T07:40:17;99430.00;;;6.53;100.00
70027;BME280;57506;50.092;15.804;2023-04-08T07:42:43;99446.91;;;6.54;100.00
70027;BME280;57506;50.092;15.804;2023-04-08T07:45:09;99457.22;;;6.41;100.00
70027;BME280;57506;50.092;15.804;2023-04-08T07:47:34;99439.25;;;6.67;100.00
70027;BME280;57506;50.092;15.804;2023-04-08T07:50:01;99450.00;;;6.75;100.00
70027;BME280;57506;50.092;15.804;2023-04-08T07:52:29;99455.50;;;6.74;100.00
70027;BME280;57506;50.092;15.804;2023-04-08T07:54:54;99467.44;;;6.79;100.00
70027;BME280;57506;50.092;15.804;2023-04-08T07:57:20;99461.50;;;6.59;100.00
70027;BME280;57506;50.092;15.804;2023-04-08T07:59:45;99454.88;;;6.80;100.00
70027;BME280;57506;50.092;15.804;2023-04-08T08:02:11;99466.28;;;6.90;100.00
70027;BME280;57506;50.092;15.804;2023-04-08T08:04:36;99470.59;;;6.75;100.00
70027;BME280;57506;50.092;15.804;2023-04-08T08:07:02;99472.78;;;6.79;100.00
70027;BME280;57506;50.092;15.804;2023-04-08T08:09:28;99479.59;;;6.65;100.00
70027;BME280;57506;50.092;15.804;2023-04-08T08:11:54;99482.97;;;6.76;100.00
70027;BME280;57506;50.092;15.804;2023-04-08T08:14:19;99478.72;;;7.07;100.00
70027;BME280;57506;50.092;15.804;2023-04-08T08:16:46;99486.91;;;6.97;100.00
70027;BME280;57506;50.092;15.804;2023-04-08T08:19:12;99483.88;;;6.92;100.00
70027;BME280;57506;50.092;15.804;2023-04-08T08:21:38;99481.09;;;7.26;100.00
70027;BME280;57506;50.092;15.804;2023-04-08T08:24:04;99487.81;;;7.30;100.00
70027;BME280;57506;50.092;15.804;2023-04-08T08:26:30;99497.31;;;7.17;100.00
70027;BME280;57506;50.092;15.804;2023-04-08T08:28:56;99486.09;;;7.21;100.00
70027;BME280;57506;50.092;15.804;2023-04-08T08:31:22;99503.19;;;7.20;100.00
70027;BME280;57506;50.092;15.804;2023-04-08T08:33:47;99493.00;;;7.56;100.00
70027;BME280;57506;50.092;15.804;2023-04-08T08:36:13;99495.19;;;7.77;100.00
70027;BME280;57506;50.092;15.804;2023-04-08T08:38:38;99513.78;;;8.11;100.00
70027;BME280;57506;50.092;15.804;2023-04-08T08:41:04;99517.28;;;8.20;100.00
70027;BME280;57506;50.092;15.804;2023-04-08T08:43:30;99521.28;;;8.16;100.00
70027;BME280;57506;50.092;15.804;2023-04-08T08:45:58;99528.72;;;7.57;100.00
70027;BME280;57506;50.092;15.804;2023-04-08T08:48:24;99528.88;;;7.71;100.00
70027;BME280;57506;50.092;15.804;2023-04-08T08:50:50;99524.69;;;7.69;100.00
70027;BME280;57506;50.092;15.804;2023-04-08T08:53:16;99533.06;;;7.66;100.00
70027;BME280;57506;50.092;15.804;2023-04-08T08:55:41;99535.91;;;7.64;100.00
70027;BME280;57506;50.092;15.804;2023-04-08T08:58:07;99538.44;;;7.74;100.00
70027;BME280;57506;50.092;15.804;2023-04-08T09:00:37;99537.44;;;7.83;100.00
70027;BME280;57506;50.092;15.804;2023-04-08T09:03:20;99538.09;;;8.01;100.00
70027;BME280;57506;50.092;15.804;2023-04-08T09:05:59;99530.19;;;8.24;100.00
70027;BME280;57506;50.092;15.804;2023-04-08T09:08:33;99547.81;;;8.35;100.00
70027;BME280;57506;50.092;15.804;2023-04-08T09:11:14;99553.81;;;8.29;100.00
70027;BME280;57506;50.092;15.804;2023-04-08T09:13:41;99557.19;;;8.31;100.00
70027;BME280;57506;50.092;15.804;2023-04-08T09:16:17;99554.44;;;8.63;100.00
70027;BME280;57506;50.092;15.804;2023-04-08T09:18:45;99554.06;;;8.83;100.00
70027;BME280;57506;50.092;15.804;2023-04-08T09:21:12;99555.06;;;9.21;100.00
70027;BME280;57506;50.092;15.804;2023-04-08T09:23:43;99561.47;;;9.42;100.00
70027;BME280;57506;50.092;15.804;2023-04-08T09:26:14;99570.94;;;9.38;100.00
70027;BME280;57506;50.092;15.804;2023-04-08T09:28:41;99575.47;;;9.38;100.00
70027;BME280;57506;50.092;15.804;2023-04-08T09:31:25;99567.44;;;9.30;100.00
70027;BME280;57506;50.092;15.804;2023-04-08T09:33:54;99576.31;;;9.38;100.00
70027;BME280;57506;50.092;15.804;2023-04-08T09:36:20;99574.69;;;9.29;100.00
70027;BME280;57506;50.092;15.804;2023-04-08T09:38:46;99585.66;;;9.20;100.00
70027;BME280;57506;50.092;15.804;2023-04-08T09:41:16;99577.41;;;9.21;100.00
70027;BME280;57506;50.092;15.804;2023-04-08T09:43:55;99589.72;;;9.46;100.00
70027;BME280;57506;50.092;15.804;2023-04-08T09:46:25;99595.50;;;9.35;100.00
70027;BME280;57506;50.092;15.804;2023-04-08T09:49:00;99597.09;;;9.53;100.00
70027;BME280;57506;50.092;15.804;2023-04-08T09:51:30;99597.50;;;9.64;100.00
70027;BME280;57506;50.092;15.804;2023-04-08T09:54:02;99601.91;;;9.88;100.00
70027;BME280;57506;50.092;15.804;2023-04-08T09:56:43;99599.25;;;10.26;100.00
70027;BME280;57506;50.092;15.804;2023-04-08T09:59:13;99602.63;;;10.42;100.00
70027;BME280;57506;50.092;15.804;2023-04-08T10:01:45;99595.16;;;10.52;100.00
70027;BME280;57506;50.092;15.804;2023-04-08T10:04:15;99603.56;;;10.35;98.35
70027;BME280;57506;50.092;15.804;2023-04-08T10:06:43;99599.75;;;10.44;100.00
70027;BME280;57506;50.092;15.804;2023-04-08T10:09:10;99604.13;;;10.45;100.00
70027;BME280;57506;50.092;15.804;2023-04-08T10:11:36;99613.72;;;10.47;99.83
70027;BME280;57506;50.092;15.804;2023-04-08T10:14:02;99606.91;;;9.68;98.66
70027;BME280;57506;50.092;15.804;2023-04-08T10:16:27;99608.50;;;9.24;97.96
70027;BME280;57506;50.092;15.804;2023-04-08T10:18:54;99608.72;;;9.45;100.00
70027;BME280;57506;50.092;15.804;2023-04-08T10:21:33;99608.13;;;9.89;100.00
70027;BME280;57506;50.092;15.804;2023-04-08T10:23:59;99616.47;;;10.16;100.00
70027;BME280;57506;50.092;15.804;2023-04-08T10:26:32;99620.44;;;10.29;100.00
70027;BME280;57506;50.092;15.804;2023-04-08T10:31:46;99618.44;;;9.23;100.00
70027;BME280;57506;50.092;15.804;2023-04-08T10:34:19;99614.56;;;9.57;100.00
70027;BME280;57506;50.092;15.804;2023-04-08T10:36:46;99621.13;;;9.77;100.00
70027;BME280;57506;50.092;15.804;2023-04-08T10:39:13;99616.94;;;9.74;98.65
70027;BME280;57506;50.092;15.804;2023-04-08T10:41:44;99616.75;;;9.76;100.00
70027;BME280;57506;50.092;15.804;2023-04-08T10:44:24;99604.78;;;9.87;100.00
70027;BME280;57506;50.092;15.804;2023-04-08T10:46:52;99618.88;;;10.11;98.60
70027;BME280;57506;50.092;15.804;2023-04-08T10:49:17;99617.56;;;10.30;100.00
70027;BME280;57506;50.092;15.804;2023-04-08T10:51:43;99616.84;;;10.36;95.99
70027;BME280;57506;50.092;15.804;2023-04-08T10:54:15;99622.88;;;10.15;90.68
70027;BME280;57506;50.092;15.804;2023-04-08T10:56:44;99628.94;;;10.17;93.12
70027;BME280;57506;50.092;15.804;2023-04-08T10:59:12;99620.25;;;10.53;94.11
70027;BME280;57506;50.092;15.804;2023-04-08T11:01:41;99623.84;;;10.45;87.75
70027;BME280;57506;50.092;15.804;2023-04-08T11:04:16;99623.97;;;10.29;89.55
70027;BME280;57506;50.092;15.804;2023-04-08T11:06:45;99622.22;;;10.22;87.31
70027;BME280;57506;50.092;15.804;2023-04-08T11:09:12;99619.72;;;10.35;87.14
70027;BME280;57506;50.092;15.804;2023-04-08T11:11:40;99625.75;;;10.22;84.88
70027;BME280;57506;50.092;15.804;2023-04-08T11:14:06;99626.44;;;10.39;87.84
70027;BME280;57506;50.092;15.804;2023-04-08T11:16:33;99624.38;;;10.41;85.51
70027;BME280;57506;50.092;15.804;2023-04-08T11:19:01;99627.25;;;10.16;91.46
70027;BME280;57506;50.092;15.804;2023-04-08T11:21:27;99622.41;;;9.89;93.72
70027;BME280;57506;50.092;15.804;2023-04-08T11:23:54;99626.28;;;9.64;95.97
70027;BME280;57506;50.092;15.804;2023-04-08T11:26:20;99622.94;;;9.85;96.78
70027;BME280;57506;50.092;15.804;2023-04-08T11:28:46;99626.59;;;9.69;92.55
70027;BME280;57506;50.092;15.804;2023-04-08T11:31:16;99622.63;;;9.57;94.86
70027;BME280;57506;50.092;15.804;2023-04-08T11:33:46;99624.94;;;9.60;93.87
70027;BME280;57506;50.092;15.804;2023-04-08T11:36:18;99627.19;;;9.48;94.68
70027;BME280;57506;50.092;15.804;2023-04-08T11:38:45;99625.91;;;9.67;95.03
70027;BME280;57506;50.092;15.804;2023-04-08T11:41:12;99625.91;;;9.67;95.80
70027;BME280;57506;50.092;15.804;2023-04-08T11:43:38;99627.06;;;9.72;92.52
70027;BME280;57506;50.092;15.804;2023-04-08T11:46:11;99628.63;;;9.67;90.57
70027;BME280;57506;50.092;15.804;2023-04-08T11:48:38;99619.16;;;9.94;90.70
70027;BME280;57506;50.092;15.804;2023-04-08T11:51:05;99641.47;;;9.57;90.92
70027;BME280;57506;50.092;15.804;2023-04-08T11:53:34;99636.19;;;9.63;89.68
70027;BME280;57506;50.092;15.804;2023-04-08T11:56:16;99635.78;;;10.05;89.29
70027;BME280;57506;50.092;15.804;2023-04-08T11:58:42;99638.66;;;10.27;86.85
70027;BME280;57506;50.092;15.804;2023-04-08T12:01:08;99635.72;;;10.36;84.63
70027;BME280;57506;50.092;15.804;2023-04-08T12:03:34;99635.22;;;10.33;87.10
70027;BME280;57506;50.092;15.804;2023-04-08T12:05:59;99632.31;;;10.72;88.68
70027;BME280;57506;50.092;15.804;2023-04-08T12:08:25;99625.34;;;10.48;87.00
70027;BME280;57506;50.092;15.804;2023-04-08T12:10:51;99629.31;;;10.37;84.71
70027;BME280;57506;50.092;15.804;2023-04-08T12:13:17;99624.09;;;10.36;83.48
70027;BME280;57506;50.092;15.804;2023-04-08T12:15:43;99619.22;;;10.54;86.24
70027;BME280;57506;50.092;15.804;2023-04-08T12:18:09;99633.31;;;10.56;88.02
70027;BME280;57506;50.092;15.804;2023-04-08T12:20:35;99630.41;;;10.43;86.89
70027;BME280;57506;50.092;15.804;2023-04-08T12:23:00;99627.03;;;10.26;83.27
70027;BME280;57506;50.092;15.804;2023-04-08T12:25:26;99628.75;;;10.42;86.89
70027;BME280;57506;50.092;15.804;2023-04-08T12:27:52;99625.53;;;10.24;83.85
70027;BME280;57506;50.092;15.804;2023-04-08T12:30:17;99631.69;;;10.09;86.96
70027;BME280;57506;50.092;15.804;2023-04-08T12:32:43;99629.22;;;9.77;88.23
70027;BME280;57506;50.092;15.804;2023-04-08T12:35:10;99635.69;;;9.29;89.23
70027;BME280;57506;50.092;15.804;2023-04-08T12:37:35;99630.75;;;9.01;89.96
70027;BME280;57506;50.092;15.804;2023-04-08T12:40:02;99640.22;;;9.36;90.80
70027;BME280;57506;50.092;15.804;2023-04-08T12:42:28;99644.88;;;9.42;88.80
70027;BME280;57506;50.092;15.804;2023-04-08T12:44:53;99636.34;;;9.31;91.12
70027;BME280;57506;50.092;15.804;2023-04-08T12:47:19;99629.66;;;9.27;90.21
70027;BME280;57506;50.092;15.804;2023-04-08T12:49:45;99632.09;;;9.44;90.50
70027;BME280;57506;50.092;15.804;2023-04-08T12:52:10;99636.09;;;9.48;89.65
70027;BME280;57506;50.092;15.804;2023-04-08T12:54:36;99635.78;;;9.74;89.78